Terminal Aerodrome Forecast
Issued by NWS

Home | Current Version | Previous Version | Text Only | Print | Product List | Glossary On
Versions: 1 2 3 4 5 6 7 8 9 10 11 12 13 14 15
000
FTUS41 KBTV 011657 AAA
TAFSLK
TAF AMD
KSLK 011657Z 0117/0212 23010G18KT P6SM VCSH BKN010 OVC020
      TEMPO 0117/0119 4SM SHRA BR BKN008 OVC020
     FM012300 24008KT P6SM SCT025 BKN035=

USA.gov is the U.S. government's official web portal to all federal, state and local government web resources and services.